createdAt,value
2022-11-26T00:02:29.945Z,2.47
2022-11-26T00:04:59.961Z,2.41
2022-11-26T00:07:31.038Z,2.35
2022-11-26T00:10:00.292Z,2.32
2022-11-26T00:12:36.480Z,2.28
2022-11-26T00:15:15.892Z,2.25
2022-11-26T00:17:43.820Z,2.14
2022-11-26T00:20:12.328Z,2.18
2022-11-26T00:22:43.029Z,2.22
2022-11-26T00:25:20.907Z,2.23
2022-11-26T00:27:51.483Z,2.20
2022-11-26T00:30:21.324Z,2.21
2022-11-26T00:32:49.616Z,2.22
2022-11-26T00:35:18.153Z,2.26
2022-11-26T00:37:48.714Z,2.27
2022-11-26T00:40:22.069Z,2.26
2022-11-26T00:42:52.416Z,2.35
2022-11-26T00:45:22.845Z,2.35
2022-11-26T00:47:51.279Z,2.42
2022-11-26T00:50:21.792Z,2.41
2022-11-26T00:52:52.730Z,2.32
2022-11-26T00:55:28.105Z,2.33
2022-11-26T00:57:58.197Z,2.32
2022-11-26T01:00:28.398Z,2.30
2022-11-26T01:02:57.290Z,2.23
2022-11-26T01:05:29.507Z,2.32
2022-11-26T01:08:00.418Z,2.21
2022-11-26T01:10:30.665Z,2.23
2022-11-26T01:12:59.996Z,2.18
2022-11-26T01:15:29.128Z,2.18
2022-11-26T01:17:57.096Z,2.25
2022-11-26T01:20:28.069Z,2.20
2022-11-26T01:22:57.701Z,2.12
2022-11-26T01:25:27.392Z,2.16
2022-11-26T01:27:55.698Z,2.17
2022-11-26T01:30:27.339Z,2.13
2022-11-26T01:32:55.345Z,2.07
2022-11-26T01:35:23.539Z,1.98
2022-11-26T01:37:51.586Z,2.00
2022-11-26T01:40:54.426Z,1.97
2022-11-26T01:43:28.121Z,1.98
2022-11-26T01:45:58.122Z,2.00
2022-11-26T01:48:29.925Z,1.97
2022-11-26T01:51:01.979Z,1.97
2022-11-26T01:53:45.018Z,1.93
2022-11-26T01:56:28.890Z,1.86
2022-11-26T01:59:03.613Z,1.81
2022-11-26T02:01:34.203Z,1.77
2022-11-26T02:04:14.207Z,1.67
2022-11-26T02:06:43.784Z,1.69
2022-11-26T02:09:12.486Z,1.68
2022-11-26T02:11:40.836Z,1.63
2022-11-26T02:14:13.390Z,1.63
2022-11-26T02:16:59.542Z,1.45
2022-11-26T02:19:57.988Z,1.42
2022-11-26T02:23:03.216Z,1.38
2022-11-26T02:25:52.891Z,1.24
2022-11-26T02:28:37.464Z,1.20
2022-11-26T02:31:12.892Z,1.15
2022-11-26T02:33:49.648Z,1.14
2022-11-26T02:36:23.064Z,1.15
2022-11-26T02:38:51.593Z,1.09
2022-11-26T02:41:19.606Z,1.01
2022-11-26T02:43:48.629Z,0.98
2022-11-26T02:46:20.911Z,0.93
2022-11-26T02:48:52.708Z,0.86
2022-11-26T02:51:25.070Z,0.82
2022-11-26T02:53:54.885Z,0.75
2022-11-26T02:56:26.049Z,0.74
2022-11-26T02:58:55.616Z,0.77
2022-11-26T03:01:31.931Z,0.77
2022-11-26T03:04:05.446Z,0.86
2022-11-26T03:06:34.708Z,0.82
2022-11-26T03:09:03.010Z,0.90
2022-11-26T03:11:31.357Z,0.83
2022-11-26T03:13:59.488Z,0.82
2022-11-26T03:16:29.686Z,0.80
2022-11-26T03:18:57.725Z,0.88
2022-11-26T03:21:25.729Z,0.87
2022-11-26T03:23:53.675Z,0.85
2022-11-26T03:26:21.639Z,0.87
2022-11-26T03:28:49.733Z,0.93
2022-11-26T03:31:17.902Z,0.99
2022-11-26T03:33:47.218Z,0.90
2022-11-26T03:36:15.093Z,0.91
2022-11-26T03:38:42.997Z,0.97
2022-11-26T03:41:10.934Z,0.86
2022-11-26T03:43:38.914Z,0.87
2022-11-26T03:46:07.184Z,0.79
2022-11-26T03:48:35.238Z,0.74
2022-11-26T03:51:04.621Z,0.66
2022-11-26T03:53:32.698Z,0.63
2022-11-26T03:56:00.649Z,0.57
2022-11-26T03:58:28.570Z,0.55
2022-11-26T04:00:56.545Z,0.51
2022-11-26T04:03:24.598Z,0.51
2022-11-26T04:05:52.683Z,0.52
2022-11-26T04:08:22.044Z,0.45
2022-11-26T04:10:49.745Z,0.42
2022-11-26T04:13:17.719Z,0.43
2022-11-26T04:15:45.673Z,0.39
2022-11-26T04:18:13.636Z,0.39
2022-11-26T04:20:41.624Z,0.41
2022-11-26T04:23:09.774Z,0.31
2022-11-26T04:25:39.079Z,0.34
2022-11-26T04:28:06.817Z,0.31
2022-11-26T04:30:34.794Z,0.29
2022-11-26T04:33:02.861Z,0.31
2022-11-26T04:35:30.850Z,0.25
2022-11-26T04:37:58.841Z,0.37
2022-11-26T04:40:26.819Z,0.48
2022-11-26T04:42:56.279Z,0.51
2022-11-26T04:45:24.289Z,0.52
2022-11-26T04:47:52.285Z,0.52
2022-11-26T04:50:20.587Z,0.48
2022-11-26T04:52:49.427Z,0.53
2022-11-26T04:55:18.552Z,0.54
2022-11-26T04:57:48.708Z,0.57
2022-11-26T05:00:19.736Z,0.52
2022-11-26T05:02:47.749Z,0.60
2022-11-26T05:05:16.627Z,0.64
2022-11-26T05:07:44.663Z,0.69
2022-11-26T05:10:13.774Z,0.72
2022-11-26T05:12:41.719Z,0.72
2022-11-26T05:15:10.435Z,0.64
2022-11-26T05:17:39.877Z,0.65
2022-11-26T05:20:09.372Z,0.72
2022-11-26T05:22:37.328Z,0.71
2022-11-26T05:25:05.931Z,0.66
2022-11-26T05:27:34.142Z,0.69
2022-11-26T05:30:02.308Z,0.62
2022-11-26T05:32:30.352Z,0.61
2022-11-26T05:35:00.373Z,0.54
2022-11-26T05:37:28.529Z,0.50
2022-11-26T05:39:56.537Z,0.49
2022-11-26T05:42:24.559Z,0.51
2022-11-26T05:44:53.768Z,0.58
2022-11-26T05:47:21.807Z,0.45
2022-11-26T05:49:49.852Z,0.46
2022-11-26T05:52:19.369Z,0.55
2022-11-26T05:54:47.544Z,0.52
2022-11-26T05:57:15.503Z,0.53
2022-11-26T05:59:43.634Z,0.45
2022-11-26T06:02:11.654Z,0.57
2022-11-26T06:04:39.995Z,0.56
2022-11-26T06:07:08.253Z,0.53
2022-11-26T06:09:37.896Z,0.57
2022-11-26T06:12:06.591Z,0.55
2022-11-26T06:14:35.746Z,0.61
2022-11-26T06:17:06.167Z,0.71
2022-11-26T06:19:34.077Z,0.74
2022-11-26T06:22:02.083Z,0.80
2022-11-26T06:24:30.752Z,0.75
2022-11-26T06:27:00.332Z,0.81
2022-11-26T06:29:28.526Z,0.90
2022-11-26T06:31:56.835Z,0.80
2022-11-26T06:34:25.035Z,0.82
2022-11-26T06:36:53.124Z,0.86
2022-11-26T06:39:21.074Z,0.89
2022-11-26T06:41:49.013Z,1.05
2022-11-26T06:44:18.320Z,0.87
2022-11-26T06:46:46.116Z,0.93
2022-11-26T06:49:14.182Z,1.03
2022-11-26T06:51:42.092Z,1.10
2022-11-26T06:54:10.272Z,1.12
2022-11-26T06:56:39.432Z,1.09
2022-11-26T06:59:07.415Z,1.12
2022-11-26T07:01:36.781Z,1.23
2022-11-26T07:04:04.875Z,1.21
2022-11-26T07:06:35.871Z,1.19
2022-11-26T07:09:06.030Z,1.34
2022-11-26T07:11:34.603Z,1.33
2022-11-26T07:14:02.980Z,1.45
2022-11-26T07:16:31.141Z,1.47
2022-11-26T07:19:02.966Z,1.53
2022-11-26T07:21:32.006Z,1.70
2022-11-26T07:24:00.343Z,1.68
2022-11-26T07:26:28.333Z,1.72
2022-11-26T07:28:56.343Z,1.71
2022-11-26T07:31:25.061Z,1.85
2022-11-26T07:33:53.251Z,1.98
2022-11-26T07:36:25.169Z,2.12
2022-11-26T07:39:08.363Z,2.17
2022-11-26T07:41:47.909Z,2.05
2022-11-26T07:44:23.287Z,2.16
2022-11-26T07:46:51.345Z,2.22
2022-11-26T07:49:29.534Z,2.32
2022-11-26T07:52:12.990Z,2.15
2022-11-26T07:54:52.016Z,2.35
2022-11-26T07:57:34.719Z,2.68
2022-11-26T08:00:14.974Z,2.96
2022-11-26T08:02:53.828Z,3.06
2022-11-26T08:05:31.714Z,3.05
2022-11-26T08:08:19.737Z,3.06
2022-11-26T08:10:54.514Z,3.08
2022-11-26T08:13:32.874Z,3.11
2022-11-26T08:16:11.242Z,2.95
2022-11-26T08:18:48.465Z,3.01
2022-11-26T08:21:32.292Z,3.15
2022-11-26T08:24:11.772Z,2.85
2022-11-26T08:26:55.964Z,2.92
2022-11-26T08:29:26.027Z,2.91
2022-11-26T08:31:57.406Z,2.92
2022-11-26T08:34:42.687Z,2.69
2022-11-26T08:37:47.655Z,2.60
2022-11-26T08:40:33.001Z,2.79
2022-11-26T08:43:13.317Z,2.83
2022-11-26T08:46:05.656Z,2.79
2022-11-26T08:48:54.668Z,2.87
2022-11-26T08:51:28.100Z,3.01
2022-11-26T08:54:07.954Z,3.10
2022-11-26T08:56:47.639Z,3.14
2022-11-26T08:59:44.136Z,3.18
2022-11-26T09:02:36.259Z,2.95
2022-11-26T09:05:07.926Z,3.04
2022-11-26T09:07:49.176Z,3.43
2022-11-26T09:10:25.520Z,3.41
2022-11-26T09:13:08.857Z,3.59
2022-11-26T09:15:51.269Z,3.53
2022-11-26T09:18:28.946Z,3.66
2022-11-26T09:21:10.761Z,3.60
2022-11-26T09:24:01.203Z,3.71
2022-11-26T09:29:41.743Z,3.85
2022-11-26T09:32:26.209Z,3.90
2022-11-26T09:35:21.764Z,4.00
2022-11-26T09:37:52.918Z,3.81
2022-11-26T09:40:59.271Z,3.61
2022-11-26T09:43:57.067Z,3.99
2022-11-26T09:47:10.926Z,4.27
2022-11-26T09:53:04.082Z,5.08
2022-11-26T09:55:53.899Z,5.15
2022-11-26T09:58:40.389Z,5.60
2022-11-26T10:01:19.729Z,6.00
2022-11-26T10:04:02.606Z,6.28
2022-11-26T10:06:46.738Z,6.93
2022-11-26T10:09:36.631Z,7.17
2022-11-26T10:12:25.904Z,7.30
2022-11-26T10:15:19.810Z,7.65
2022-11-26T10:18:07.735Z,7.72
2022-11-26T10:21:57.010Z,7.38
2022-11-26T10:24:42.535Z,7.61
2022-11-26T10:27:20.131Z,7.51
2022-11-26T10:29:55.936Z,7.52
2022-11-26T10:32:28.977Z,7.24
2022-11-26T10:35:06.096Z,6.85
2022-11-26T10:38:07.063Z,6.93
2022-11-26T10:40:46.265Z,6.87
2022-11-26T10:43:24.549Z,7.14
2022-11-26T10:45:56.957Z,7.32
2022-11-26T10:48:31.232Z,7.46
2022-11-26T10:51:25.144Z,7.74
2022-11-26T10:54:09.434Z,7.52
2022-11-26T10:59:58.467Z,7.54
2022-11-26T11:02:43.462Z,7.80
2022-11-26T11:05:40.623Z,7.52
2022-11-26T11:08:34.261Z,7.67
2022-11-26T11:11:07.497Z,7.52
2022-11-26T11:13:43.058Z,7.42
2022-11-26T11:16:13.099Z,7.49
2022-11-26T11:18:52.251Z,7.38
2022-11-26T11:21:25.300Z,7.66
2022-11-26T11:24:09.097Z,7.53
2022-11-26T11:26:44.569Z,7.56
2022-11-26T11:29:32.413Z,7.57
2022-11-26T11:32:02.144Z,7.53
2022-11-26T11:34:35.251Z,7.30
2022-11-26T11:37:21.918Z,7.65
2022-11-26T11:40:05.727Z,7.51
2022-11-26T11:42:43.367Z,7.47
2022-11-26T11:45:42.383Z,7.68
2022-11-26T11:48:40.114Z,7.47
2022-11-26T11:51:34.662Z,7.52
2022-11-26T11:54:18.774Z,7.64
2022-11-26T11:56:52.636Z,7.49
2022-11-26T12:00:10.773Z,7.49
2022-11-26T12:03:21.298Z,7.29
2022-11-26T12:06:06.098Z,7.40
2022-11-26T12:08:54.141Z,7.73
2022-11-26T12:11:51.663Z,7.37
2022-11-26T12:14:39.325Z,7.74
2022-11-26T12:17:52.070Z,7.37
2022-11-26T12:20:38.122Z,7.64
2022-11-26T12:23:39.947Z,7.65
2022-11-26T12:26:25.638Z,7.52
2022-11-26T12:29:01.349Z,7.57
2022-11-26T12:31:36.263Z,7.48
2022-11-26T12:34:41.028Z,7.87
2022-11-26T12:37:21.129Z,8.15
2022-11-26T12:40:21.108Z,8.13
2022-11-26T12:43:00.410Z,8.32
2022-11-26T12:45:59.866Z,8.30
2022-11-26T12:48:45.780Z,7.94
2022-11-26T12:51:38.418Z,7.72
2022-11-26T12:54:17.847Z,7.74
2022-11-26T12:56:53.903Z,7.96
2022-11-26T12:59:25.828Z,7.79
2022-11-26T13:01:53.871Z,7.70
2022-11-26T13:04:37.564Z,7.83
2022-11-26T13:07:24.645Z,7.63
2022-11-26T13:10:04.676Z,7.42
2022-11-26T13:12:46.755Z,7.27
2022-11-26T13:15:22.109Z,7.35
2022-11-26T13:17:51.812Z,7.20
2022-11-26T13:20:40.847Z,7.22
2022-11-26T13:23:14.983Z,7.05
2022-11-26T13:26:02.076Z,7.17
2022-11-26T13:28:53.912Z,7.18
2022-11-26T13:31:37.797Z,7.24
2022-11-26T13:34:37.964Z,7.24
2022-11-26T13:37:32.458Z,7.12
2022-11-26T13:40:26.310Z,6.91
2022-11-26T13:43:30.119Z,6.86
2022-11-26T13:46:11.273Z,6.79
2022-11-26T13:48:49.153Z,6.83
2022-11-26T13:51:23.375Z,6.89
2022-11-26T13:53:57.759Z,6.87
2022-11-26T13:56:32.296Z,6.75
2022-11-26T13:59:03.846Z,6.68
2022-11-26T14:01:37.205Z,6.65
2022-11-26T14:04:08.013Z,6.35
2022-11-26T14:06:36.558Z,6.40
2022-11-26T14:09:06.063Z,6.40
2022-11-26T14:11:58.185Z,6.34
2022-11-26T14:14:40.126Z,6.16
2022-11-26T14:17:33.889Z,6.25
2022-11-26T14:20:12.667Z,6.04
2022-11-26T14:22:40.766Z,6.01
2022-11-26T14:25:12.413Z,5.90
2022-11-26T14:27:53.703Z,5.87
2022-11-26T14:30:26.569Z,5.88
2022-11-26T14:32:59.341Z,5.82
2022-11-26T14:35:34.053Z,5.74
2022-11-26T14:38:04.604Z,5.73
2022-11-26T14:40:34.222Z,5.70
2022-11-26T14:43:16.827Z,5.65
2022-11-26T14:45:46.615Z,5.58
2022-11-26T14:48:24.136Z,5.56
2022-11-26T14:50:52.767Z,5.43
2022-11-26T14:53:23.699Z,5.51
2022-11-26T14:55:52.899Z,5.46
2022-11-26T14:58:25.909Z,5.37
2022-11-26T15:01:07.180Z,5.32
2022-11-26T15:03:35.584Z,5.26
2022-11-26T15:06:03.762Z,5.18
2022-11-26T15:08:31.730Z,5.13
2022-11-26T15:11:03.370Z,5.15
2022-11-26T15:13:35.038Z,5.02
2022-11-26T15:16:05.128Z,5.12
2022-11-26T15:18:36.226Z,5.07
2022-11-26T15:21:06.600Z,4.99
2022-11-26T15:23:40.397Z,4.97
2022-11-26T15:26:16.802Z,4.83
2022-11-26T15:28:46.437Z,4.76
2022-11-26T15:31:14.422Z,4.83
2022-11-26T15:33:43.683Z,4.83
2022-11-26T15:36:17.361Z,4.76
2022-11-26T15:39:02.959Z,4.72
2022-11-26T15:41:31.731Z,4.68
2022-11-26T15:44:01.529Z,4.60
2022-11-26T15:46:33.463Z,4.58
2022-11-26T15:49:04.760Z,4.50
2022-11-26T15:51:37.430Z,4.63
2022-11-26T15:54:18.835Z,4.87
2022-11-26T15:56:51.301Z,4.76
2022-11-26T15:59:22.124Z,4.85
2022-11-26T16:01:50.194Z,4.79
2022-11-26T16:04:41.278Z,4.75
2022-11-26T16:07:11.388Z,4.62
2022-11-26T16:09:39.829Z,4.63
2022-11-26T16:12:27.347Z,4.56
2022-11-26T16:15:09.365Z,4.48
2022-11-26T16:17:39.280Z,4.48
2022-11-26T16:20:17.818Z,4.44
2022-11-26T16:22:48.492Z,4.42
2022-11-26T16:25:22.439Z,4.35
2022-11-26T16:28:08.509Z,4.31
2022-11-26T16:30:38.127Z,4.16
2022-11-26T16:33:07.255Z,4.21
2022-11-26T16:35:51.209Z,4.25
2022-11-26T16:38:21.502Z,4.26
2022-11-26T16:40:49.764Z,4.22
2022-11-26T16:43:17.916Z,4.22
2022-11-26T16:45:47.600Z,4.28
2022-11-26T16:48:23.567Z,4.21
2022-11-26T16:50:52.372Z,4.20
2022-11-26T16:53:20.264Z,4.23
2022-11-26T16:55:49.954Z,4.26
2022-11-26T16:58:26.498Z,4.19
2022-11-26T17:00:56.774Z,4.15
2022-11-26T17:03:27.571Z,4.16
2022-11-26T17:05:59.435Z,4.20
2022-11-26T17:08:29.526Z,4.24
2022-11-26T17:10:57.651Z,4.30
2022-11-26T17:13:25.677Z,4.33
2022-11-26T17:15:55.076Z,4.37
2022-11-26T17:18:25.822Z,4.31
2022-11-26T17:20:54.851Z,4.26
2022-11-26T17:23:22.885Z,4.32
2022-11-26T17:25:53.838Z,4.30
2022-11-26T17:28:23.169Z,4.33
2022-11-26T17:30:51.394Z,4.33
2022-11-26T17:33:20.776Z,4.37
2022-11-26T17:35:49.201Z,4.44
2022-11-26T17:38:19.851Z,4.32
2022-11-26T17:40:48.976Z,4.45
2022-11-26T17:43:17.017Z,4.42
2022-11-26T17:45:45.306Z,4.39
2022-11-26T17:48:14.547Z,4.39
2022-11-26T17:50:43.791Z,4.43
2022-11-26T17:53:11.577Z,4.46
2022-11-26T17:55:39.613Z,4.45
2022-11-26T17:58:08.041Z,4.48
2022-11-26T18:00:36.070Z,4.49
2022-11-26T18:03:04.206Z,4.47
2022-11-26T18:05:32.248Z,4.42
2022-11-26T18:08:01.667Z,4.40
2022-11-26T18:10:29.704Z,4.47
2022-11-26T18:12:58.488Z,4.48
2022-11-26T18:15:28.083Z,4.46
2022-11-26T18:17:56.721Z,4.49
2022-11-26T18:20:27.182Z,4.33
2022-11-26T18:22:56.985Z,4.31
2022-11-26T18:25:27.156Z,4.31
2022-11-26T18:27:55.343Z,4.40
2022-11-26T18:30:24.775Z,4.41
2022-11-26T18:32:52.812Z,4.39
2022-11-26T18:35:22.764Z,4.36
2022-11-26T18:37:51.207Z,4.30
2022-11-26T18:40:19.279Z,4.32
2022-11-26T18:42:52.874Z,4.32
2022-11-26T18:45:20.990Z,4.30
2022-11-26T18:47:48.994Z,4.37
2022-11-26T18:50:17.051Z,4.33
2022-11-26T18:52:54.946Z,4.35
2022-11-26T18:55:23.049Z,4.30
2022-11-26T18:57:52.455Z,4.36
2022-11-26T19:00:20.910Z,4.22
2022-11-26T19:02:48.922Z,4.37
2022-11-26T19:05:17.187Z,4.26
2022-11-26T19:07:45.274Z,4.27
2022-11-26T19:10:13.520Z,4.31
2022-11-26T19:12:41.480Z,4.32
2022-11-26T19:15:11.405Z,4.42
2022-11-26T19:17:39.334Z,4.42
2022-11-26T19:20:08.643Z,4.36
2022-11-26T19:22:36.948Z,4.37
2022-11-26T19:25:05.312Z,4.36
2022-11-26T19:27:33.417Z,4.40
2022-11-26T19:30:01.480Z,4.40
2022-11-26T19:32:30.797Z,4.33
2022-11-26T19:35:04.125Z,4.41
2022-11-26T19:37:34.007Z,4.28
2022-11-26T19:40:02.067Z,4.37
2022-11-26T19:42:30.389Z,4.38
2022-11-26T19:44:58.381Z,4.32
2022-11-26T19:47:26.296Z,4.31
2022-11-26T19:49:55.618Z,4.34
2022-11-26T19:52:23.445Z,4.36
2022-11-26T19:54:51.397Z,4.39
2022-11-26T19:57:19.357Z,4.28
2022-11-26T19:59:47.387Z,4.34
2022-11-26T20:02:15.625Z,4.32
2022-11-26T20:04:43.759Z,4.32
2022-11-26T20:07:13.137Z,4.37
2022-11-26T20:09:41.492Z,4.39
2022-11-26T20:12:09.553Z,4.33
2022-11-26T20:14:37.506Z,4.36
2022-11-26T20:17:05.565Z,4.37
2022-11-26T20:19:33.557Z,4.36
2022-11-26T20:22:01.556Z,4.31
2022-11-26T20:24:31.004Z,4.32
2022-11-26T20:26:59.125Z,4.29
2022-11-26T20:29:27.086Z,4.31
2022-11-26T20:31:55.086Z,4.23
2022-11-26T20:34:26.208Z,4.22
2022-11-26T20:36:54.169Z,4.24
2022-11-26T20:39:23.995Z,4.28
2022-11-26T20:41:53.430Z,4.14
2022-11-26T20:44:23.113Z,4.12
2022-11-26T20:46:51.069Z,4.11
2022-11-26T20:49:19.082Z,4.11
2022-11-26T20:51:47.060Z,4.13
2022-11-26T20:54:15.021Z,4.07
2022-11-26T20:56:43.008Z,4.11
2022-11-26T20:59:12.396Z,4.13
2022-11-26T21:01:40.504Z,4.10
2022-11-26T21:04:08.674Z,4.16
2022-11-26T21:06:37.085Z,4.07
2022-11-26T21:09:07.328Z,4.12
2022-11-26T21:11:35.980Z,4.15
2022-11-26T21:14:04.112Z,4.03
2022-11-26T21:16:34.553Z,4.04
2022-11-26T21:19:02.847Z,3.95
2022-11-26T21:21:30.812Z,3.95
2022-11-26T21:23:59.099Z,3.83
2022-11-26T21:26:28.091Z,3.93
2022-11-26T21:28:57.376Z,3.86
2022-11-26T21:31:25.983Z,3.95
2022-11-26T21:34:00.850Z,4.07
2022-11-26T21:36:30.058Z,3.89
2022-11-26T21:38:58.085Z,3.90
2022-11-26T21:41:27.419Z,3.98
2022-11-26T21:43:55.645Z,3.93
2022-11-26T21:46:25.772Z,3.94
2022-11-26T21:48:54.911Z,3.95
2022-11-26T21:51:25.996Z,3.92
2022-11-26T21:53:55.470Z,3.92
2022-11-26T21:56:25.087Z,3.91
2022-11-26T21:58:53.413Z,3.88
2022-11-26T22:01:23.927Z,3.85
2022-11-26T22:03:54.198Z,3.86
2022-11-26T22:06:24.979Z,3.94
2022-11-26T22:08:53.390Z,4.03
2022-11-26T22:11:23.364Z,4.12
2022-11-26T22:13:52.034Z,4.06
2022-11-26T22:16:22.365Z,3.96
2022-11-26T22:18:51.303Z,4.01
2022-11-26T22:21:21.248Z,3.95
2022-11-26T22:24:05.022Z,3.95
2022-11-26T22:26:33.729Z,3.99
2022-11-26T22:29:02.193Z,4.03
2022-11-26T22:31:32.138Z,4.02
2022-11-26T22:34:01.784Z,4.00
2022-11-26T22:36:29.966Z,3.96
2022-11-26T22:38:59.795Z,4.02
2022-11-26T22:41:27.817Z,3.99
2022-11-26T22:43:58.867Z,4.00
2022-11-26T22:46:30.225Z,4.01
2022-11-26T22:49:05.562Z,4.07
2022-11-26T22:51:35.153Z,4.06
2022-11-26T22:54:07.739Z,3.97
2022-11-26T22:56:39.344Z,4.01
2022-11-26T22:59:11.793Z,4.00
2022-11-26T23:01:42.146Z,4.11
2022-11-26T23:04:11.619Z,3.97
2022-11-26T23:06:40.675Z,3.74
2022-11-26T23:09:10.996Z,4.07
2022-11-26T23:11:43.436Z,4.05
2022-11-26T23:14:12.150Z,4.08
2022-11-26T23:16:43.975Z,4.07
2022-11-26T23:19:14.527Z,3.90
2022-11-26T23:21:44.646Z,3.98
2022-11-26T23:24:14.919Z,4.04
2022-11-26T23:26:43.289Z,3.94
2022-11-26T23:29:14.768Z,3.99
2022-11-26T23:31:44.508Z,3.96
2022-11-26T23:34:15.172Z,3.96
2022-11-26T23:36:45.364Z,3.94
2022-11-26T23:39:14.919Z,4.01
2022-11-26T23:41:43.721Z,3.97
2022-11-26T23:44:11.696Z,3.99
2022-11-26T23:46:39.775Z,4.08
2022-11-26T23:49:07.915Z,4.14
2022-11-26T23:51:36.033Z,4.08
2022-11-26T23:54:04.167Z,4.14
2022-11-26T23:56:34.815Z,4.13
2022-11-26T23:59:04.827Z,4.07
